Time;durP1;ratioP1;P1;durP2;ratioP2;P2;SDS_P1;SDS_P2;PMS_P1;PMS_P2;Temp;Humidity;BMP_temperature;BMP_pressure;BME280_temperature;BME280_humidity;BME280_pressure;Samples;Min_cycle;Max_cycle;Signal;HPM_P1;HPM_P2
2021/03/08 00:01:20;;;;;;;9.82;7.25;;;6.20;53.50;;;;;;5015273;28;20103;-61
2021/03/08 00:03:46;;;;;;;9.02;7.13;;;6.20;53.40;;;;;;5015214;28;20026;-61
2021/03/08 00:06:11;;;;;;;8.63;7.03;;;6.20;53.60;;;;;;5015221;28;20420;-59
2021/03/08 00:08:37;;;;;;;12.40;6.03;;;6.20;53.30;;;;;;5013822;28;20049;-61
2021/03/08 00:11:03;;;;;;;8.27;6.93;;;6.20;53.40;;;;;;5015339;28;20041;-61
2021/03/08 00:13:29;;;;;;;9.73;6.75;;;6.20;53.40;;;;;;5014987;28;20029;-61
2021/03/08 00:15:54;;;;;;;8.98;6.82;;;6.10;53.50;;;;;;5022053;28;20025;-61
2021/03/08 00:18:20;;;;;;;9.88;7.20;;;6.10;53.60;;;;;;5014849;28;20064;-61
2021/03/08 00:20:46;;;;;;;10.10;7.20;;;6.10;53.70;;;;;;5014894;28;20398;-61
2021/03/08 00:23:11;;;;;;;11.25;7.43;;;6.10;53.60;;;;;;5014857;28;20437;-61
2021/03/08 00:25:37;;;;;;;8.88;7.38;;;6.10;53.70;;;;;;5014759;28;20080;-61
2021/03/08 00:28:03;;;;;;;8.70;6.82;;;6.10;53.70;;;;;;5014790;28;20385;-60
2021/03/08 00:30:29;;;;;;;9.25;7.55;;;6.10;53.70;;;;;;5014722;28;20032;-61
2021/03/08 00:32:56;;;;;;;11.13;7.20;;;6.10;53.70;;;;;;5014959;28;20029;-61
2021/03/08 00:35:21;;;;;;;9.40;6.97;;;6.10;53.70;;;;;;5014590;28;20034;-61
2021/03/08 00:37:48;;;;;;;9.18;6.93;;;6.10;53.80;;;;;;5014530;28;20042;-61
2021/03/08 00:40:18;;;;;;;9.85;7.07;;;6.10;53.80;;;;;;5014444;28;20072;-60
2021/03/08 00:42:44;;;;;;;8.60;7.00;;;6.00;54.40;;;;;;5014550;28;20052;-61
2021/03/08 00:45:12;;;;;;;10.93;7.35;;;6.00;54.40;;;;;;5031011;28;20029;-61
2021/03/08 00:47:38;;;;;;;9.00;6.85;;;6.00;53.80;;;;;;5034110;28;20516;-61
2021/03/08 00:50:06;;;;;;;10.10;6.82;;;6.00;54.00;;;;;;5034003;28;20049;-61
2021/03/08 00:52:32;;;;;;;11.15;8.02;;;6.00;54.10;;;;;;5034064;28;20021;-61
2021/03/08 00:54:58;;;;;;;10.95;7.20;;;6.10;54.10;;;;;;5034291;28;20469;-61
2021/03/08 00:57:23;;;;;;;9.45;7.35;;;6.10;54.00;;;;;;5033922;28;20032;-61
2021/03/08 00:59:49;;;;;;;10.45;7.45;;;6.10;54.00;;;;;;5033938;28;20017;-61
2021/03/08 01:02:15;;;;;;;10.60;7.72;;;6.00;53.90;;;;;;5033936;28;20021;-61
2021/03/08 01:04:40;;;;;;;11.52;7.75;;;6.00;53.90;;;;;;5033977;28;20033;-61
2021/03/08 01:07:06;;;;;;;10.27;7.75;;;6.00;53.90;;;;;;5033817;28;20079;-61
2021/03/08 01:09:32;;;;;;;10.40;8.07;;;5.90;54.00;;;;;;5033757;28;20465;-61
2021/03/08 01:11:57;;;;;;;10.38;7.70;;;5.90;54.10;;;;;;5034005;28;20100;-61
2021/03/08 01:14:23;;;;;;;10.20;8.02;;;5.90;54.10;;;;;;5021204;28;20083;-61
2021/03/08 01:16:49;;;;;;;8.70;7.07;;;5.90;54.20;;;;;;5022687;28;20084;-61
2021/03/08 01:19:15;;;;;;;9.15;6.97;;;5.90;54.30;;;;;;5033653;28;20018;-61
2021/03/08 01:21:41;;;;;;;11.50;7.68;;;5.90;54.40;;;;;;5029531;28;20033;-61
2021/03/08 01:24:09;;;;;;;8.60;6.55;;;5.90;54.40;;;;;;5045376;28;20117;-61
2021/03/08 01:26:35;;;;;;;10.77;8.32;;;5.90;54.30;;;;;;5013837;28;20026;-61
2021/03/08 01:29:00;;;;;;;8.73;7.07;;;5.90;54.30;;;;;;5013964;28;20049;-61
2021/03/08 01:31:26;;;;;;;10.43;7.75;;;5.90;54.30;;;;;;5026319;28;20034;-60
2021/03/08 01:33:52;;;;;;;10.40;7.78;;;5.90;54.30;;;;;;5033466;28;20029;-61
2021/03/08 01:36:19;;;;;;;11.05;7.20;;;5.90;54.30;;;;;;5033443;28;20401;-61
2021/03/08 01:38:45;;;;;;;11.52;7.72;;;5.80;54.30;;;;;;5033457;28;20380;-61
2021/03/08 01:41:11;;;;;;;11.38;7.57;;;5.80;54.50;;;;;;5033446;28;20036;-60
2021/03/08 01:43:37;;;;;;;11.15;8.65;;;5.80;54.50;;;;;;5030141;28;20056;-61
2021/03/08 01:46:03;;;;;;;11.43;7.50;;;5.80;54.50;;;;;;5033318;28;20079;-61
2021/03/08 01:48:29;;;;;;;10.95;7.70;;;5.80;54.60;;;;;;5031939;28;20029;-61
2021/03/08 01:50:55;;;;;;;12.63;8.70;;;5.80;54.70;;;;;;5033314;28;20032;-61
2021/03/08 01:53:21;;;;;;;11.18;7.63;;;5.80;54.60;;;;;;5033205;28;20374;-61
2021/03/08 01:55:47;;;;;;;11.95;8.32;;;5.80;54.70;;;;;;5033337;28;20469;-61
2021/03/08 01:58:13;;;;;;;11.75;8.05;;;5.80;54.80;;;;;;5033198;28;20034;-61
2021/03/08 02:00:39;;;;;;;11.35;8.57;;;5.80;54.70;;;;;;5033504;28;20018;-61
2021/03/08 02:03:06;;;;;;;10.77;8.98;;;5.80;54.70;;;;;;5033504;28;20032;-61
2021/03/08 02:05:42;;;;;;;11.05;8.13;;;5.80;54.60;;;;;;5033295;28;20038;-61
2021/03/08 02:08:11;;;;;;;11.93;8.27;;;5.80;54.70;;;;;;5031393;28;20478;-61
2021/03/08 02:10:39;;;;;;;11.73;8.10;;;5.80;54.80;;;;;;5033455;28;20030;-61
2021/03/08 02:13:17;;;;;;;12.18;8.23;;;5.80;55.00;;;;;;5033104;28;20030;-61
2021/03/08 02:16:14;;;;;;;10.80;7.90;;;5.80;55.00;;;;;;5033078;28;20017;-61
2021/03/08 02:18:43;;;;;;;10.48;8.30;;;5.80;54.90;;;;;;5013868;28;20061;-61
2021/03/08 02:21:45;;;;;;;12.27;8.60;;;5.80;55.00;;;;;;5013560;28;20076;-61
2021/03/08 02:24:26;;;;;;;10.57;8.05;;;5.80;54.80;;;;;;5013285;28;20430;-61
2021/03/08 02:27:00;;;;;;;13.63;8.30;;;5.80;55.10;;;;;;5013602;28;20041;-61
2021/03/08 02:29:49;;;;;;;10.70;8.48;;;5.80;55.00;;;;;;5013357;28;20033;-61
2021/03/08 02:32:21;;;;;;;11.07;7.47;;;5.80;55.00;;;;;;5013613;28;20116;-61
2021/03/08 02:34:55;;;;;;;9.85;8.13;;;5.80;55.70;;;;;;5013289;28;20474;-60
2021/03/08 02:37:24;;;;;;;9.32;7.55;;;5.80;55.00;;;;;;5013196;28;20413;-61
2021/03/08 02:40:00;;;;;;;11.60;8.48;;;5.80;55.70;;;;;;5014583;28;20076;-60
2021/03/08 02:42:33;;;;;;;11.90;8.15;;;5.80;55.20;;;;;;5036666;28;20044;-61
2021/03/08 02:45:00;;;;;;;9.43;7.47;;;5.80;55.20;;;;;;5036533;28;20021;-61
2021/03/08 02:47:30;;;;;;;9.85;7.85;;;5.80;55.10;;;;;;5036486;28;20025;-61
2021/03/08 02:49:57;;;;;;;11.90;7.93;;;5.80;55.20;;;;;;5036150;28;20068;-59
2021/03/08 02:52:28;;;;;;;10.80;7.88;;;5.90;55.20;;;;;;5036358;28;20079;-61
2021/03/08 02:54:56;;;;;;;9.52;7.68;;;5.80;55.20;;;;;;5036453;28;20029;-61
2021/03/08 02:57:25;;;;;;;11.68;8.35;;;5.80;55.10;;;;;;5036269;28;20034;-61
2021/03/08 02:59:54;;;;;;;9.65;7.57;;;5.80;55.20;;;;;;5036485;28;20021;-61
2021/03/08 03:02:23;;;;;;;11.95;8.25;;;5.80;55.20;;;;;;5036193;28;20052;-61
2021/03/08 03:04:50;;;;;;;12.45;8.23;;;5.90;55.40;;;;;;5036220;28;20101;-61
2021/03/08 03:07:17;;;;;;;10.77;8.10;;;5.90;55.90;;;;;;5036052;28;20040;-61
2021/03/08 03:09:45;;;;;;;11.20;7.40;;;5.90;55.30;;;;;;5020689;28;20113;-61
2021/03/08 03:12:12;;;;;;;9.82;7.50;;;5.90;55.40;;;;;;5016534;28;20477;-61
2021/03/08 03:14:41;;;;;;;11.18;8.05;;;5.90;55.40;;;;;;5020961;28;20025;-61
2021/03/08 03:17:09;;;;;;;10.98;7.80;;;5.90;55.40;;;;;;5028635;28;20029;-60
2021/03/08 03:19:38;;;;;;;12.38;8.18;;;5.90;55.40;;;;;;5016116;28;20041;-61
2021/03/08 03:22:06;;;;;;;11.27;7.90;;;5.80;55.40;;;;;;5016113;28;20483;-61
2021/03/08 03:24:33;;;;;;;10.82;8.13;;;5.80;55.40;;;;;;5016012;28;20097;-60
2021/03/08 03:27:03;;;;;;;11.32;8.15;;;5.80;55.50;;;;;;5016209;28;20104;-61
2021/03/08 03:29:35;;;;;;;10.40;8.75;;;5.70;55.60;;;;;;5015908;28;20025;-61
2021/03/08 03:32:02;;;;;;;12.55;8.43;;;5.60;55.60;;;;;;5016063;28;20065;-61
2021/03/08 03:34:29;;;;;;;11.20;7.88;;;5.50;55.70;;;;;;5015829;28;20533;-61
2021/03/08 03:36:55;;;;;;;11.73;8.48;;;5.40;55.90;;;;;;5015679;28;20037;-61
2021/03/08 03:39:23;;;;;;;10.18;7.70;;;5.40;56.00;;;;;;5015536;28;20029;-60
2021/03/08 03:41:49;;;;;;;9.13;8.00;;;5.30;56.00;;;;;;5015982;28;20041;-60
2021/03/08 03:44:15;;;;;;;9.85;7.65;;;5.30;56.30;;;;;;5015620;28;20034;-61
2021/03/08 03:46:46;;;;;;;9.07;6.93;;;5.20;56.40;;;;;;5015793;28;20026;-61
2021/03/08 03:49:15;;;;;;;10.30;8.20;;;5.20;56.30;;;;;;5015575;28;20108;-61
2021/03/08 03:51:42;;;;;;;11.68;8.90;;;5.10;56.20;;;;;;5014367;28;20034;-61
2021/03/08 03:54:08;;;;;;;11.90;8.10;;;5.10;56.50;;;;;;5015509;28;20025;-61
2021/03/08 03:56:35;;;;;;;11.00;8.05;;;5.10;56.50;;;;;;5015357;28;20480;-60
2021/03/08 03:59:03;;;;;;;13.02;8.05;;;5.10;56.40;;;;;;5015399;28;20105;-61
2021/03/08 04:01:40;;;;;;;10.48;8.10;;;5.10;56.40;;;;;;5015335;28;20018;-61
2021/03/08 04:04:14;;;;;;;10.25;7.93;;;5.10;56.40;;;;;;5015382;28;20417;-61
2021/03/08 04:06:47;;;;;;;11.45;8.55;;;5.10;56.50;;;;;;5015188;28;20025;-61
2021/03/08 04:09:14;;;;;;;10.98;8.15;;;5.10;56.40;;;;;;5015056;28;20417;-61
2021/03/08 04:11:42;;;;;;;9.63;7.57;;;5.10;56.60;;;;;;5030050;28;20420;-61
2021/03/08 04:14:09;;;;;;;12.70;8.32;;;5.10;56.60;;;;;;5034883;28;20032;-61
2021/03/08 04:16:39;;;;;;;11.55;7.90;;;5.10;56.50;;;;;;5029558;28;20041;-61
2021/03/08 04:19:07;;;;;;;10.63;7.18;;;5.00;56.40;;;;;;5013783;28;20030;-61
2021/03/08 04:21:35;;;;;;;14.00;9.18;;;5.00;56.80;;;;;;5015196;28;20436;-61
2021/03/08 04:24:02;;;;;;;11.32;7.60;;;4.90;56.80;;;;;;5014940;28;20121;-61
2021/03/08 04:26:29;;;;;;;9.32;7.93;;;4.90;56.90;;;;;;5015128;28;20374;-61
2021/03/08 04:28:57;;;;;;;10.52;7.53;;;4.90;56.80;;;;;;5013649;28;20018;-61
2021/03/08 04:31:23;;;;;;;9.63;7.85;;;4.80;57.00;;;;;;5014737;28;20084;-61
2021/03/08 04:33:50;;;;;;;10.85;7.65;;;4.70;57.00;;;;;;5014942;28;20022;-61
2021/03/08 04:36:17;;;;;;;10.68;7.75;;;4.70;57.20;;;;;;5014685;28;20381;-61
2021/03/08 04:38:43;;;;;;;13.20;8.38;;;4.70;57.20;;;;;;5015050;28;20022;-60
2021/03/08 04:41:10;;;;;;;10.98;7.95;;;4.70;57.50;;;;;;5014614;28;20022;-61
2021/03/08 04:43:37;;;;;;;11.30;8.18;;;4.70;57.50;;;;;;5014787;28;20493;-61
2021/03/08 04:46:04;;;;;;;12.75;8.98;;;4.70;57.50;;;;;;5014901;28;20428;-61
2021/03/08 04:48:30;;;;;;;12.82;9.05;;;4.70;57.50;;;;;;5016223;28;20049;-61
2021/03/08 04:50:57;;;;;;;11.25;8.57;;;4.70;57.90;;;;;;5034216;28;20030;-61
2021/03/08 04:53:23;;;;;;;11.95;8.80;;;4.80;57.70;;;;;;5034117;28;20033;-61
2021/03/08 04:55:51;;;;;;;11.25;8.27;;;4.90;57.60;;;;;;5034089;28;20034;-60
2021/03/08 04:58:16;;;;;;;11.25;8.90;;;4.90;57.40;;;;;;5033849;28;20026;-61
2021/03/08 05:00:42;;;;;;;10.40;8.50;;;4.90;57.40;;;;;;5033972;28;20022;-60
2021/03/08 05:03:10;;;;;;;13.63;9.70;;;5.00;57.50;;;;;;5033716;28;20026;-61
2021/03/08 05:05:36;;;;;;;12.52;8.52;;;5.00;57.30;;;;;;5033875;28;20079;-60
2021/03/08 05:08:07;;;;;;;10.95;7.82;;;5.10;57.30;;;;;;5033893;28;20473;-61
2021/03/08 05:10:36;;;;;;;12.65;9.13;;;5.10;57.30;;;;;;5034167;28;20022;-61
2021/03/08 05:13:05;;;;;;;11.93;8.50;;;5.20;57.20;;;;;;5034118;28;20109;-60
2021/03/08 05:15:33;;;;;;;12.52;8.85;;;5.20;57.40;;;;;;5033768;28;20400;-61
2021/03/08 05:18:00;;;;;;;13.50;8.90;;;5.30;57.10;;;;;;5017801;28;20025;-61
2021/03/08 05:20:26;;;;;;;11.32;7.68;;;5.30;57.20;;;;;;5014006;28;20030;-61
2021/03/08 05:22:53;;;;;;;11.52;8.52;;;5.30;57.40;;;;;;5014070;28;20034;-61
2021/03/08 05:25:20;;;;;;;13.43;9.55;;;5.40;57.00;;;;;;5021424;28;20036;-60
2021/03/08 05:27:48;;;;;;;11.32;8.38;;;5.40;56.80;;;;;;5033607;28;20025;-61
2021/03/08 05:30:17;;;;;;;14.00;9.30;;;5.50;57.00;;;;;;5033598;28;20053;-61
2021/03/08 05:33:02;;;;;;;12.38;9.00;;;5.50;56.80;;;;;;5033667;28;20036;-61
2021/03/08 05:35:29;;;;;;;13.30;9.07;;;5.60;56.90;;;;;;5033560;28;20021;-61
2021/03/08 05:37:56;;;;;;;10.57;8.50;;;5.70;56.90;;;;;;5033422;28;20029;-61
2021/03/08 05:40:33;;;;;;;12.88;8.95;;;5.70;56.60;;;;;;5033425;28;20029;-61
2021/03/08 05:43:04;;;;;;;12.73;8.77;;;5.80;56.70;;;;;;5033772;28;20021;-61
2021/03/08 05:45:34;;;;;;;11.45;8.85;;;5.90;56.80;;;;;;5033504;28;20044;-61
2021/03/08 05:48:19;;;;;;;13.00;8.32;;;5.90;57.10;;;;;;5017557;28;20030;-61
2021/03/08 05:50:46;;;;;;;14.55;9.02;;;6.00;56.50;;;;;;5033417;28;20120;-60
2021/03/08 05:53:23;;;;;;;11.98;9.00;;;6.10;56.40;;;;;;5033455;28;20029;-61
2021/03/08 05:56:10;;;;;;;9.57;7.55;;;6.10;56.20;;;;;;5033423;28;20026;-61
2021/03/08 05:58:48;;;;;;;13.43;8.63;;;6.20;56.10;;;;;;5033214;28;20021;-60
2021/03/08 06:01:23;;;;;;;12.32;9.20;;;6.30;56.00;;;;;;5033306;28;20025;-61
2021/03/08 06:04:24;;;;;;;12.18;8.57;;;6.30;55.90;;;;;;5033298;28;20381;-61
2021/03/08 06:07:26;;;;;;;11.32;8.48;;;6.30;55.80;;;;;;5032149;28;20091;-61
2021/03/08 06:10:06;;;;;;;11.57;8.13;;;6.40;55.70;;;;;;5033194;28;20030;-61
2021/03/08 06:12:37;;;;;;;11.27;8.55;;;6.40;55.70;;;;;;5033332;28;20040;-61
2021/03/08 06:15:08;;;;;;;9.20;7.47;;;6.40;55.40;;;;;;5034259;28;20362;-61
2021/03/08 06:17:37;;;;;;;12.30;9.02;;;6.50;55.60;;;;;;5022098;28;20033;-61
2021/03/08 06:20:05;;;;;;;13.15;8.82;;;6.50;55.70;;;;;;5017637;28;20459;-61
2021/03/08 06:22:32;;;;;;;11.07;8.50;;;6.50;55.60;;;;;;5017080;28;20034;-61
2021/03/08 06:24:59;;;;;;;12.43;8.60;;;6.50;55.60;;;;;;5017150;28;20026;-61
2021/03/08 06:27:25;;;;;;;10.60;8.40;;;6.50;55.50;;;;;;5048903;28;20026;-61
2021/03/08 06:29:52;;;;;;;13.52;9.20;;;6.60;55.60;;;;;;5017078;28;20040;-61
2021/03/08 06:32:19;;;;;;;12.88;9.63;;;6.60;55.20;;;;;;5017022;28;20026;-61
2021/03/08 06:34:45;;;;;;;13.32;8.85;;;6.60;55.00;;;;;;5017203;28;20029;-61
2021/03/08 06:37:12;;;;;;;13.20;9.77;;;6.50;55.20;;;;;;5016845;28;20087;-61
2021/03/08 06:39:39;;;;;;;14.00;9.68;;;6.50;55.30;;;;;;5017194;28;20377;-61
2021/03/08 06:42:05;;;;;;;16.10;9.88;;;6.40;55.30;;;;;;5017070;28;20423;-61
2021/03/08 06:44:32;;;;;;;9.95;7.55;;;6.40;55.50;;;;;;5016774;28;20022;-61
2021/03/08 06:46:58;;;;;;;14.45;8.65;;;6.40;55.50;;;;;;5017396;28;20392;-61
2021/03/08 06:49:24;;;;;;;11.38;8.30;;;6.40;55.60;;;;;;5016646;28;20453;-61
2021/03/08 06:52:00;;;;;;;9.20;7.85;;;6.50;55.40;;;;;;5026978;28;20033;-61
2021/03/08 06:54:25;;;;;;;12.20;9.02;;;6.40;55.40;;;;;;5036160;28;20029;-61
2021/03/08 06:56:54;;;;;;;14.43;9.30;;;6.40;55.60;;;;;;5035016;28;20385;-61
2021/03/08 06:59:19;;;;;;;12.30;9.25;;;6.40;55.70;;;;;;5036216;28;20389;-61
2021/03/08 07:01:45;;;;;;;13.30;9.85;;;6.40;56.00;;;;;;5036091;28;20026;-61
2021/03/08 07:04:24;;;;;;;11.68;8.80;;;6.50;55.80;;;;;;5036488;28;20025;-61
2021/03/08 07:07:05;;;;;;;13.63;8.63;;;6.60;55.80;;;;;;5036061;28;20117;-61
2021/03/08 07:09:33;;;;;;;12.60;8.57;;;6.60;55.90;;;;;;5036209;28;20033;-61
2021/03/08 07:12:06;;;;;;;11.02;9.07;;;6.70;55.90;;;;;;5035955;28;20544;-61
2021/03/08 07:14:32;;;;;;;10.68;8.70;;;6.70;55.60;;;;;;5036005;28;20076;-59
2021/03/08 07:16:58;;;;;;;12.98;8.73;;;6.70;55.50;;;;;;5036137;28;20116;-60
2021/03/08 07:19:24;;;;;;;13.48;8.75;;;6.70;55.60;;;;;;5035958;28;20095;-61
2021/03/08 07:21:50;;;;;;;10.90;8.15;;;6.70;55.80;;;;;;5025336;28;20033;-61
2021/03/08 07:24:16;;;;;;;11.90;9.05;;;6.80;55.90;;;;;;5016048;28;20425;-61
2021/03/08 07:26:55;;;;;;;20.45;9.50;;;6.80;55.80;;;;;;5015671;28;20030;-61
2021/03/08 07:29:23;;;;;;;12.43;9.35;;;6.80;55.80;;;;;;5015953;28;20105;-61
2021/03/08 07:31:53;;;;;;;14.23;9.85;;;6.80;55.80;;;;;;5015892;28;20052;-59
2021/03/08 07:34:21;;;;;;;17.75;8.98;;;6.90;55.90;;;;;;5015836;28;20034;-61
2021/03/08 07:36:57;;;;;;;13.25;8.52;;;6.90;55.80;;;;;;5015713;28;20080;-61
2021/03/08 07:39:24;;;;;;;11.30;9.35;;;7.00;55.50;;;;;;5015755;28;20022;-61
2021/03/08 07:41:58;;;;;;;11.23;8.90;;;7.00;55.60;;;;;;5015781;28;20030;-61
2021/03/08 07:44:29;;;;;;;11.65;9.15;;;7.10;55.60;;;;;;5015870;28;20029;-61
2021/03/08 07:46:56;;;;;;;12.63;9.30;;;7.10;55.50;;;;;;5015847;28;20088;-61
2021/03/08 07:49:33;;;;;;;13.35;9.57;;;7.10;55.40;;;;;;5029620;28;20064;-60
2021/03/08 07:52:21;;;;;;;13.27;10.10;;;7.00;55.30;;;;;;5020155;28;20042;-61
2021/03/08 07:55:05;;;;;;;12.20;9.20;;;6.90;55.40;;;;;;5021162;28;20103;-61
2021/03/08 07:57:31;;;;;;;14.23;8.98;;;6.90;55.40;;;;;;5035069;28;20029;-61
2021/03/08 07:59:57;;;;;;;9.80;7.78;;;6.80;55.60;;;;;;5035414;28;20026;-60
2021/03/08 08:02:22;;;;;;;13.07;9.52;;;6.80;55.70;;;;;;5035034;28;20029;-60
2021/03/08 08:04:48;;;;;;;14.18;10.07;;;6.70;55.70;;;;;;5035357;28;20466;-61
2021/03/08 08:07:17;;;;;;;13.93;10.27;;;6.70;56.00;;;;;;5034903;28;20116;-61
2021/03/08 08:09:46;;;;;;;16.42;10.98;;;6.80;56.20;;;;;;5034942;28;20071;-61
2021/03/08 08:12:14;;;;;;;12.13;9.93;;;6.80;56.30;;;;;;5035113;28;20039;-61
2021/03/08 08:14:41;;;;;;;13.27;9.60;;;6.90;56.10;;;;;;5034086;28;20044;-61
2021/03/08 08:17:15;;;;;;;12.50;8.57;;;7.10;56.00;;;;;;5034264;28;20038;-61
2021/03/08 08:19:45;;;;;;;11.10;8.70;;;7.20;56.00;;;;;;5034486;28;20431;-61
2021/03/08 08:22:21;;;;;;;13.27;9.60;;;7.20;55.90;;;;;;5019042;28;20485;-61
2021/03/08 08:24:48;;;;;;;13.50;10.00;;;7.20;55.70;;;;;;5034273;28;20075;-61
2021/03/08 08:27:16;;;;;;;12.70;9.45;;;7.30;55.70;;;;;;5034596;28;20083;-61
2021/03/08 08:29:45;;;;;;;12.27;9.43;;;7.20;55.90;;;;;;5034803;28;20029;-61
2021/03/08 08:32:11;;;;;;;12.05;8.90;;;7.20;56.00;;;;;;5034547;28;20034;-61
2021/03/08 08:34:42;;;;;;;13.15;9.68;;;7.30;56.10;;;;;;5034481;28;20385;-60
2021/03/08 08:37:15;;;;;;;;;;;7.30;55.70;;;;;;5034720;28;20036;-61
2021/03/08 08:39:53;;;;;;;11.38;8.55;;;7.30;55.90;;;;;;5034167;28;20284;-61
2021/03/08 08:42:20;;;;;;;13.60;9.75;;;7.40;55.90;;;;;;5034376;28;20028;-60
2021/03/08 08:44:48;;;;;;;12.35;8.90;;;7.40;55.80;;;;;;5034564;28;20021;-61
2021/03/08 08:47:22;;;;;;;13.75;9.13;;;7.30;55.80;;;;;;5034247;28;20488;-61
2021/03/08 08:49:50;;;;;;;12.00;8.57;;;7.30;55.90;;;;;;5033832;28;20049;-60
2021/03/08 08:52:38;;;;;;;11.48;8.90;;;7.40;56.20;;;;;;5014686;28;20029;-60
2021/03/08 08:55:04;;;;;;;13.00;9.45;;;7.50;56.20;;;;;;5031468;28;20036;-61
2021/03/08 08:57:29;;;;;;;9.93;7.40;;;7.60;56.00;;;;;;5034096;28;20477;-61
2021/03/08 09:00:24;;;;;;;13.65;8.88;;;7.70;55.90;;;;;;5025555;28;20028;-61
2021/03/08 09:02:50;;;;;;;11.98;8.98;;;7.70;55.40;;;;;;5033133;28;20381;-61
2021/03/08 09:05:27;;;;;;;12.93;8.02;;;7.70;55.40;;;;;;5029135;28;20037;-61
2021/03/08 09:08:30;;;;;;;9.82;7.80;;;7.70;55.40;;;;;;5032324;28;20038;-61
2021/03/08 09:10:57;;;;;;;12.18;8.85;;;7.70;55.40;;;;;;5024676;28;20048;-61
2021/03/08 09:13:25;;;;;;;11.02;8.63;;;7.60;55.50;;;;;;5024637;28;20038;-59
2021/03/08 09:15:51;;;;;;;12.43;8.48;;;7.60;55.50;;;;;;5023910;28;20025;-60
2021/03/08 09:18:32;;;;;;;12.55;8.27;;;7.60;55.60;;;;;;5033050;28;20021;-60
2021/03/08 09:21:20;;;;;;;10.52;8.40;;;7.60;55.60;;;;;;5030284;28;20018;-61
2021/03/08 09:23:45;;;;;;;12.23;8.35;;;7.60;55.60;;;;;;5033306;28;20029;-59
2021/03/08 09:26:11;;;;;;;11.10;8.32;;;7.50;55.70;;;;;;5027013;28;20084;-61
2021/03/08 09:28:45;;;;;;;12.85;8.10;;;7.50;56.00;;;;;;5021519;28;20095;-60
2021/03/08 09:31:20;;;;;;;10.63;8.40;;;7.60;55.90;;;;;;5018518;28;20039;-60
2021/03/08 09:33:47;;;;;;;11.32;8.18;;;7.60;56.00;;;;;;5026461;28;20056;-61
2021/03/08 09:36:13;;;;;;;9.13;7.30;;;7.70;55.90;;;;;;5032950;28;20482;-61
2021/03/08 09:38:39;;;;;;;9.52;7.70;;;7.80;55.50;;;;;;5032536;28;20032;-59
2021/03/08 09:41:04;;;;;;;10.93;8.13;;;7.80;55.40;;;;;;5032803;28;20026;-61
2021/03/08 09:43:35;;;;;;;11.57;8.32;;;7.80;55.50;;;;;;5031658;28;20076;-61
2021/03/08 09:46:09;;;;;;;10.85;8.15;;;7.80;55.40;;;;;;5032209;28;20060;-61
2021/03/08 09:48:38;;;;;;;11.10;8.55;;;7.80;55.50;;;;;;5027454;28;20108;-61
2021/03/08 09:51:05;;;;;;;15.20;9.00;;;7.80;55.40;;;;;;5036325;28;20087;-60
2021/03/08 09:53:35;;;;;;;12.00;8.52;;;7.80;55.40;;;;;;5036602;28;20539;-61
2021/03/08 09:56:10;;;;;;;10.82;8.23;;;7.80;55.40;;;;;;5036965;28;20397;-61
2021/03/08 09:58:36;;;;;;;12.93;9.13;;;7.80;55.20;;;;;;5030469;28;20440;-60
2021/03/08 10:01:16;;;;;;;11.50;8.68;;;7.70;55.30;;;;;;5021219;28;20065;-60
2021/03/08 10:03:43;;;;;;;11.43;8.32;;;7.50;55.40;;;;;;5059592;28;20022;-61
2021/03/08 10:06:27;;;;;;;12.55;8.98;;;7.40;55.50;;;;;;5034088;28;20025;-61
2021/03/08 10:08:54;;;;;;;19.33;9.68;;;7.30;55.70;;;;;;5035216;28;20020;-61
2021/03/08 10:11:25;;;;;;;14.57;8.65;;;7.30;56.10;;;;;;5035236;28;20080;-61
2021/03/08 10:13:52;;;;;;;13.05;9.02;;;7.30;56.20;;;;;;5036309;28;21720;-61
2021/03/08 10:16:27;;;;;;;11.40;8.65;;;7.30;56.10;;;;;;5028939;28;20096;-60
2021/03/08 10:18:53;;;;;;;12.70;8.55;;;7.30;55.90;;;;;;5023385;28;20537;-61
2021/03/08 10:21:20;;;;;;;13.05;8.90;;;7.30;55.90;;;;;;5029380;28;20023;-61
2021/03/08 10:23:46;;;;;;;13.98;8.32;;;7.20;56.00;;;;;;5024166;28;20022;-61
2021/03/08 10:26:13;;;;;;;15.23;8.27;;;7.20;56.20;;;;;;5029864;28;20092;-61
2021/03/08 10:28:50;;;;;;;11.45;8.10;;;7.00;56.10;;;;;;5023412;28;20524;-61
2021/03/08 10:31:24;;;;;;;10.93;7.90;;;6.90;56.20;;;;;;5022975;28;20022;-61
2021/03/08 10:33:52;;;;;;;11.57;9.18;;;6.90;56.50;;;;;;5023771;28;20080;-61
2021/03/08 10:36:20;;;;;;;12.50;8.60;;;6.70;56.70;;;;;;5029171;28;20079;-59
2021/03/08 10:38:53;;;;;;;12.30;9.30;;;6.60;57.00;;;;;;5025477;28;20069;-61
2021/03/08 10:41:21;;;;;;;12.32;8.85;;;6.50;57.30;;;;;;5031489;28;20532;-61
2021/03/08 10:43:47;;;;;;;12.32;9.25;;;6.50;57.70;;;;;;5026110;28;20045;-61
2021/03/08 10:46:13;;;;;;;13.90;9.60;;;6.50;57.90;;;;;;5026740;28;20041;-61
2021/03/08 10:49:15;;;;;;;11.73;8.63;;;6.40;58.10;;;;;;5035407;28;20107;-61
2021/03/08 10:51:42;;;;;;;6.95;5.13;;;6.30;58.10;;;;;;4988476;28;20494;-64
2021/03/08 10:54:09;;;;;;;6.07;4.35;;;6.20;57.80;;;;;;5015011;28;20485;-62
2021/03/08 10:56:42;;;;;;;7.45;4.93;;;6.00;57.70;;;;;;5020975;28;20112;-62
2021/03/08 10:59:28;;;;;;;6.72;4.50;;;5.90;57.80;;;;;;5027347;28;20021;-62
2021/03/08 11:02:05;;;;;;;4.80;3.67;;;5.60;58.00;;;;;;5017057;28;20029;-62
2021/03/08 11:04:31;;;;;;;4.18;3.38;;;5.50;58.30;;;;;;5016495;28;20034;-62
2021/03/08 11:06:57;;;;;;;3.72;2.85;;;5.40;58.20;;;;;;5027831;28;20465;-61
2021/03/08 11:09:33;;;;;;;2.80;2.50;;;5.30;58.20;;;;;;5017813;28;20080;-62
2021/03/08 11:12:00;;;;;;;2.88;2.38;;;5.20;58.00;;;;;;5030161;28;20038;-62
2021/03/08 11:14:27;;;;;;;2.50;2.30;;;5.20;58.00;;;;;;5027856;28;20030;-61
2021/03/08 11:16:58;;;;;;;3.17;2.88;;;5.10;57.90;;;;;;5017312;28;20022;-62
2021/03/08 11:19:29;;;;;;;3.88;2.63;;;5.00;57.90;;;;;;5020462;28;20466;-61
2021/03/08 11:22:14;;;;;;;4.40;2.92;;;5.00;57.90;;;;;;5020733;28;20496;-61
2021/03/08 11:24:48;;;;;;;7.03;3.60;;;5.00;58.10;;;;;;5023074;28;20014;-61
2021/03/08 11:27:16;;;;;;;5.97;3.53;;;5.10;58.00;;;;;;5024403;28;20061;-61
2021/03/08 11:29:58;;;;;;;4.00;2.88;;;5.10;57.60;;;;;;5029719;28;20108;-59
2021/03/08 11:32:29;;;;;;;4.38;2.92;;;5.10;57.40;;;;;;5028306;28;20451;-61
2021/03/08 11:34:55;;;;;;;5.95;3.70;;;5.10;57.10;;;;;;5027008;28;20052;-61
2021/03/08 11:37:23;;;;;;;6.30;3.00;;;5.10;57.00;;;;;;5020787;28;20119;-61
2021/03/08 11:39:55;;;;;;;4.72;3.25;;;5.00;56.80;;;;;;5025821;28;20020;-59
2021/03/08 11:42:28;;;;;;;3.65;2.80;;;5.00;56.60;;;;;;5020675;28;20025;-61
2021/03/08 11:44:54;;;;;;;4.38;3.10;;;5.00;56.40;;;;;;5018270;28;20109;-61
2021/03/08 11:47:20;;;;;;;5.40;3.20;;;5.00;56.50;;;;;;5021394;28;20042;-58
2021/03/08 11:49:46;;;;;;;7.18;3.30;;;5.00;56.50;;;;;;5021927;28;20056;-58
2021/03/08 11:52:12;;;;;;;3.80;3.10;;;5.00;56.50;;;;;;5017878;28;20033;-61
2021/03/08 11:54:38;;;;;;;5.97;3.45;;;5.00;56.30;;;;;;5026748;28;20030;-61
2021/03/08 11:57:06;;;;;;;7.07;3.30;;;4.90;56.40;;;;;;5024947;28;20053;-60
2021/03/08 11:59:32;;;;;;;6.93;3.45;;;4.90;56.40;;;;;;5028042;28;20477;-61
2021/03/08 12:01:58;;;;;;;5.32;3.25;;;4.90;56.60;;;;;;5028614;28;20017;-60
2021/03/08 12:04:24;;;;;;;6.80;3.08;;;5.00;56.90;;;;;;5032883;28;20076;-61
2021/03/08 12:06:50;;;;;;;4.72;3.17;;;5.00;57.10;;;;;;5032078;28;20028;-61
2021/03/08 12:09:16;;;;;;;6.15;3.08;;;5.10;57.10;;;;;;5034291;28;20026;-59
2021/03/08 12:11:41;;;;;;;5.80;3.58;;;5.20;57.30;;;;;;5027991;28;20033;-61
2021/03/08 12:14:07;;;;;;;3.80;3.08;;;5.30;57.40;;;;;;5032588;28;20424;-61
2021/03/08 12:16:33;;;;;;;4.22;2.97;;;5.40;57.50;;;;;;5034155;28;20025;-60
2021/03/08 12:18:59;;;;;;;4.88;2.97;;;5.50;57.40;;;;;;5025460;28;20026;-60
2021/03/08 12:21:25;;;;;;;4.60;2.95;;;5.50;57.10;;;;;;5033922;28;20104;-60
2021/03/08 12:23:52;;;;;;;5.10;2.58;;;5.50;57.20;;;;;;5033289;28;20022;-59
2021/03/08 12:26:19;;;;;;;2.53;2.33;;;5.50;57.50;;;;;;5022232;28;20075;-60
2021/03/08 12:28:45;;;;;;;3.58;2.35;;;5.50;57.50;;;;;;5026187;28;20406;-62
2021/03/08 12:31:11;;;;;;;3.47;2.85;;;5.50;57.80;;;;;;5022776;28;20097;-62
2021/03/08 12:33:37;;;;;;;4.72;3.20;;;5.60;57.80;;;;;;5020200;28;20029;-62
2021/03/08 12:36:05;;;;;;;4.13;2.63;;;5.60;57.30;;;;;;5024022;28;20029;-61
2021/03/08 12:38:30;;;;;;;3.47;2.80;;;5.50;56.60;;;;;;5020951;28;20030;-60
2021/03/08 12:40:56;;;;;;;2.47;2.20;;;5.40;56.40;;;;;;5017121;28;20109;-61
2021/03/08 12:43:22;;;;;;;2.20;2.00;;;5.30;56.50;;;;;;5015327;28;20026;-60
2021/03/08 12:45:48;;;;;;;3.35;2.60;;;5.30;56.30;;;;;;5017648;28;20024;-60
2021/03/08 12:48:13;;;;;;;6.20;3.42;;;5.20;56.50;;;;;;5031357;28;20108;-60
2021/03/08 12:50:39;;;;;;;4.43;2.60;;;5.20;56.70;;;;;;5032422;28;20439;-60
2021/03/08 12:53:05;;;;;;;4.20;2.85;;;5.20;56.70;;;;;;5032582;28;20034;-60
2021/03/08 12:55:30;;;;;;;3.03;2.47;;;5.20;56.70;;;;;;5027922;28;20025;-61
2021/03/08 12:57:56;;;;;;;2.30;2.10;;;5.20;56.50;;;;;;5017777;28;20025;-61
2021/03/08 13:00:22;;;;;;;4.38;2.63;;;5.10;56.40;;;;;;5022523;28;20398;-60
2021/03/08 13:02:48;;;;;;;3.90;3.10;;;5.10;56.50;;;;;;5017745;28;20026;-60